sensor_id;sensor_type;location;lat;lon;timestamp;pressure;altitude;pressure_sealevel;temperature;humidity
7109;BME280;29079;41.930;25.558;2023-08-12T00:02:53;99940.28;;;19.50;69.03
7109;BME280;29079;41.930;25.558;2023-08-12T00:05:41;99945.78;;;19.42;69.50
7109;BME280;29079;41.930;25.558;2023-08-12T00:08:30;99944.25;;;19.24;70.18
7109;BME280;29079;41.930;25.558;2023-08-12T00:11:19;99943.97;;;19.34;70.22
7109;BME280;29079;41.930;25.558;2023-08-12T00:14:06;99954.63;;;19.36;70.05
7109;BME280;29079;41.930;25.558;2023-08-12T00:16:54;99952.28;;;19.33;69.64
7109;BME280;29079;41.930;25.558;2023-08-12T00:19:42;99947.94;;;19.31;69.81
7109;BME280;29079;41.930;25.558;2023-08-12T00:22:30;99944.94;;;19.03;70.85
7109;BME280;29079;41.930;25.558;2023-08-12T00:25:18;99943.56;;;19.07;70.94
7109;BME280;29079;41.930;25.558;2023-08-12T00:28:07;99947.03;;;19.16;70.87
7109;BME280;29079;41.930;25.558;2023-08-12T00:30:55;99944.00;;;19.11;71.19
7109;BME280;29079;41.930;25.558;2023-08-12T00:33:43;99950.91;;;18.99;71.24
7109;BME280;29079;41.930;25.558;2023-08-12T00:36:30;99948.59;;;18.87;71.91
7109;BME280;29079;41.930;25.558;2023-08-12T00:39:18;99950.34;;;19.03;71.39
7109;BME280;29079;41.930;25.558;2023-08-12T00:42:06;99948.56;;;18.95;71.64
7109;BME280;29079;41.930;25.558;2023-08-12T00:44:55;99930.41;;;18.73;72.14
7109;BME280;29079;41.930;25.558;2023-08-12T00:47:43;99946.31;;;18.99;71.81
7109;BME280;29079;41.930;25.558;2023-08-12T00:50:31;99942.59;;;19.00;71.55
7109;BME280;29079;41.930;25.558;2023-08-12T00:53:20;99936.44;;;18.83;72.16
7109;BME280;29079;41.930;25.558;2023-08-12T00:56:08;99933.34;;;18.94;71.59
7109;BME280;29079;41.930;25.558;2023-08-12T00:58:57;99933.47;;;19.01;71.55
7109;BME280;29079;41.930;25.558;2023-08-12T01:01:47;99930.13;;;18.68;72.68
7109;BME280;29079;41.930;25.558;2023-08-12T01:04:35;99929.63;;;18.64;72.97
7109;BME280;29079;41.930;25.558;2023-08-12T01:07:22;99936.19;;;18.70;72.91
7109;BME280;29079;41.930;25.558;2023-08-12T01:10:10;99941.78;;;19.00;72.12
7109;BME280;29079;41.930;25.558;2023-08-12T01:13:08;99937.19;;;18.69;72.71
7109;BME280;29079;41.930;25.558;2023-08-12T01:15:58;99894.84;;;18.38;72.98
7109;BME280;29079;41.930;25.558;2023-08-12T01:18:51;99937.66;;;19.04;73.61
7109;BME280;29079;41.930;25.558;2023-08-12T01:21:41;99942.84;;;18.90;71.88
7109;BME280;29079;41.930;25.558;2023-08-12T01:24:35;99931.94;;;18.44;73.76
7109;BME280;29079;41.930;25.558;2023-08-12T01:27:23;99934.22;;;18.64;73.15
7109;BME280;29079;41.930;25.558;2023-08-12T01:30:12;99924.06;;;18.66;72.63
7109;BME280;29079;41.930;25.558;2023-08-12T01:33:04;99943.88;;;18.81;72.62
7109;BME280;29079;41.930;25.558;2023-08-12T01:35:57;99938.69;;;18.48;73.89
7109;BME280;29079;41.930;25.558;2023-08-12T01:38:49;99935.63;;;18.51;73.75
7109;BME280;29079;41.930;25.558;2023-08-12T01:41:40;99936.06;;;18.63;73.40
7109;BME280;29079;41.930;25.558;2023-08-12T01:44:27;99935.16;;;18.48;74.57
7109;BME280;29079;41.930;25.558;2023-08-12T01:47:15;99936.44;;;18.29;74.88
7109;BME280;29079;41.930;25.558;2023-08-12T01:50:04;99947.06;;;18.30;74.88
7109;BME280;29079;41.930;25.558;2023-08-12T01:52:53;99936.69;;;18.42;74.79
7109;BME280;29079;41.930;25.558;2023-08-12T01:55:43;99939.50;;;18.25;75.42
7109;BME280;29079;41.930;25.558;2023-08-12T01:58:32;99923.41;;;18.32;74.51
7109;BME280;29079;41.930;25.558;2023-08-12T02:01:20;99943.56;;;18.53;74.26
7109;BME280;29079;41.930;25.558;2023-08-12T02:04:08;99943.13;;;18.41;74.96
7109;BME280;29079;41.930;25.558;2023-08-12T02:06:56;99947.84;;;18.70;73.95
7109;BME280;29079;41.930;25.558;2023-08-12T02:09:44;99950.56;;;18.39;74.94
7109;BME280;29079;41.930;25.558;2023-08-12T02:12:31;99949.88;;;18.68;74.28
7109;BME280;29079;41.930;25.558;2023-08-12T02:15:20;99948.25;;;18.90;73.11
7109;BME280;29079;41.930;25.558;2023-08-12T02:18:08;99950.44;;;18.64;74.15
7109;BME280;29079;41.930;25.558;2023-08-12T02:20:56;99950.84;;;18.52;74.49
7109;BME280;29079;41.930;25.558;2023-08-12T02:23:44;99960.09;;;18.58;74.64
7109;BME280;29079;41.930;25.558;2023-08-12T02:26:31;99952.97;;;18.65;74.21
7109;BME280;29079;41.930;25.558;2023-08-12T02:29:19;99963.50;;;18.52;74.96
7109;BME280;29079;41.930;25.558;2023-08-12T02:32:08;99962.44;;;18.61;74.74
7109;BME280;29079;41.930;25.558;2023-08-12T02:34:56;99963.16;;;18.55;75.15
7109;BME280;29079;41.930;25.558;2023-08-12T02:37:44;99969.94;;;18.51;75.38
7109;BME280;29079;41.930;25.558;2023-08-12T02:40:32;99963.72;;;18.42;75.44
7109;BME280;29079;41.930;25.558;2023-08-12T02:43:19;99971.16;;;18.40;75.72
7109;BME280;29079;41.930;25.558;2023-08-12T02:46:07;99975.13;;;18.60;74.36
7109;BME280;29079;41.930;25.558;2023-08-12T02:48:56;99969.72;;;18.60;73.82
7109;BME280;29079;41.930;25.558;2023-08-12T02:51:44;99979.72;;;18.52;73.73
7109;BME280;29079;41.930;25.558;2023-08-12T02:54:32;99950.94;;;18.36;74.10
7109;BME280;29079;41.930;25.558;2023-08-12T02:57:19;99984.22;;;18.59;73.96
7109;BME280;29079;41.930;25.558;2023-08-12T03:00:08;99975.78;;;18.62;73.58
7109;BME280;29079;41.930;25.558;2023-08-12T03:02:57;99975.91;;;18.38;74.08
7109;BME280;29079;41.930;25.558;2023-08-12T03:05:47;99975.88;;;18.46;74.26
7109;BME280;29079;41.930;25.558;2023-08-12T03:08:35;99969.31;;;18.40;74.05
7109;BME280;29079;41.930;25.558;2023-08-12T03:11:22;99964.16;;;18.54;73.69
7109;BME280;29079;41.930;25.558;2023-08-12T03:14:10;99969.25;;;18.80;72.88
7109;BME280;29079;41.930;25.558;2023-08-12T03:16:58;99965.59;;;18.65;72.88
7109;BME280;29079;41.930;25.558;2023-08-12T03:19:46;99969.13;;;18.42;74.08
7109;BME280;29079;41.930;25.558;2023-08-12T03:22:35;99965.44;;;18.35;74.38
7109;BME280;29079;41.930;25.558;2023-08-12T03:25:23;99954.81;;;18.33;74.10
7109;BME280;29079;41.930;25.558;2023-08-12T03:28:10;99965.66;;;18.25;74.58
7109;BME280;29079;41.930;25.558;2023-08-12T03:30:58;99967.97;;;18.36;74.09
7109;BME280;29079;41.930;25.558;2023-08-12T03:33:46;99962.56;;;18.36;74.49
7109;BME280;29079;41.930;25.558;2023-08-12T03:36:34;99956.34;;;18.36;74.34
7109;BME280;29079;41.930;25.558;2023-08-12T03:39:23;99956.38;;;18.27;74.82
7109;BME280;29079;41.930;25.558;2023-08-12T03:42:11;99971.78;;;18.10;75.56
7109;BME280;29079;41.930;25.558;2023-08-12T03:44:58;99954.94;;;18.00;75.98
7109;BME280;29079;41.930;25.558;2023-08-12T03:47:46;99968.97;;;18.04;76.32
7109;BME280;29079;41.930;25.558;2023-08-12T03:50:34;99964.56;;;18.03;76.29
7109;BME280;29079;41.930;25.558;2023-08-12T03:53:22;99963.50;;;18.12;76.03
7109;BME280;29079;41.930;25.558;2023-08-12T03:56:11;99959.72;;;17.90;76.31
7109;BME280;29079;41.930;25.558;2023-08-12T03:59:01;99972.22;;;18.31;74.88
7109;BME280;29079;41.930;25.558;2023-08-12T04:01:49;99960.88;;;18.35;74.64
7109;BME280;29079;41.930;25.558;2023-08-12T04:04:37;99977.09;;;18.67;73.54
7109;BME280;29079;41.930;25.558;2023-08-12T04:07:24;99979.91;;;18.50;74.22
7109;BME280;29079;41.930;25.558;2023-08-12T04:10:13;99978.28;;;18.33;74.89
7109;BME280;29079;41.930;25.558;2023-08-12T04:13:02;99977.47;;;18.24;75.64
7109;BME280;29079;41.930;25.558;2023-08-12T04:15:51;99943.50;;;17.98;75.68
7109;BME280;29079;41.930;25.558;2023-08-12T04:18:39;99968.06;;;18.12;76.18
7109;BME280;29079;41.930;25.558;2023-08-12T04:21:28;99979.34;;;18.23;76.47
7109;BME280;29079;41.930;25.558;2023-08-12T04:24:15;99981.44;;;18.44;75.71
7109;BME280;29079;41.930;25.558;2023-08-12T04:27:03;99985.69;;;18.39;75.69
7109;BME280;29079;41.930;25.558;2023-08-12T04:29:52;99984.38;;;18.26;76.12
7109;BME280;29079;41.930;25.558;2023-08-12T04:32:40;99985.69;;;18.70;75.05
7109;BME280;29079;41.930;25.558;2023-08-12T04:35:31;99989.66;;;19.14;73.12
7109;BME280;29079;41.930;25.558;2023-08-12T04:38:18;99968.34;;;19.11;72.87
7109;BME280;29079;41.930;25.558;2023-08-12T04:41:06;99985.28;;;19.51;72.24
7109;BME280;29079;41.930;25.558;2023-08-12T04:43:54;99984.44;;;19.51;72.71
7109;BME280;29079;41.930;25.558;2023-08-12T04:46:43;99988.44;;;19.17;73.20
7109;BME280;29079;41.930;25.558;2023-08-12T04:49:31;99996.22;;;19.58;72.57
7109;BME280;29079;41.930;25.558;2023-08-12T04:52:19;99997.84;;;19.44;72.59
7109;BME280;29079;41.930;25.558;2023-08-12T04:55:08;100004.56;;;19.33;73.05
7109;BME280;29079;41.930;25.558;2023-08-12T04:57:58;100003.34;;;19.36;73.30
7109;BME280;29079;41.930;25.558;2023-08-12T05:00:45;100011.13;;;19.39;72.91
7109;BME280;29079;41.930;25.558;2023-08-12T05:03:34;100011.94;;;19.39;72.89
7109;BME280;29079;41.930;25.558;2023-08-12T05:06:22;100013.19;;;19.52;72.57
7109;BME280;29079;41.930;25.558;2023-08-12T05:09:10;100004.88;;;19.91;71.36
7109;BME280;29079;41.930;25.558;2023-08-12T05:11:58;100011.88;;;20.15;70.43
7109;BME280;29079;41.930;25.558;2023-08-12T05:14:46;100009.53;;;20.27;70.14
7109;BME280;29079;41.930;25.558;2023-08-12T05:17:34;100012.78;;;20.52;68.94
7109;BME280;29079;41.930;25.558;2023-08-12T05:20:23;100017.75;;;20.49;69.37
7109;BME280;29079;41.930;25.558;2023-08-12T05:23:11;100021.44;;;20.93;67.81
7109;BME280;29079;41.930;25.558;2023-08-12T05:25:59;100016.34;;;21.26;67.51
7109;BME280;29079;41.930;25.558;2023-08-12T05:28:46;100016.53;;;21.03;68.30
7109;BME280;29079;41.930;25.558;2023-08-12T05:31:34;100015.88;;;21.01;68.61
7109;BME280;29079;41.930;25.558;2023-08-12T05:34:22;100016.63;;;20.73;69.35
7109;BME280;29079;41.930;25.558;2023-08-12T05:37:11;100019.44;;;21.01;68.27
7109;BME280;29079;41.930;25.558;2023-08-12T05:39:59;100017.88;;;20.92;69.03
7109;BME280;29079;41.930;25.558;2023-08-12T05:42:47;100004.94;;;21.16;67.83
7109;BME280;29079;41.930;25.558;2023-08-12T05:45:35;100012.44;;;21.35;67.58
7109;BME280;29079;41.930;25.558;2023-08-12T05:48:23;100008.91;;;21.35;66.59
7109;BME280;29079;41.930;25.558;2023-08-12T05:51:10;99999.88;;;21.78;65.76
7109;BME280;29079;41.930;25.558;2023-08-12T05:53:59;100001.16;;;21.82;65.43
7109;BME280;29079;41.930;25.558;2023-08-12T05:56:47;99997.69;;;21.95;64.69
7109;BME280;29079;41.930;25.558;2023-08-12T05:59:35;99994.22;;;22.07;63.98
7109;BME280;29079;41.930;25.558;2023-08-12T06:02:23;99996.13;;;22.14;64.02
7109;BME280;29079;41.930;25.558;2023-08-12T06:05:11;100002.94;;;22.03;63.45
7109;BME280;29079;41.930;25.558;2023-08-12T06:07:59;99994.63;;;22.11;63.74
7109;BME280;29079;41.930;25.558;2023-08-12T06:10:48;100003.50;;;22.26;62.84
7109;BME280;29079;41.930;25.558;2023-08-12T06:13:35;99995.78;;;22.30;62.94
7109;BME280;29079;41.930;25.558;2023-08-12T06:16:23;100000.44;;;22.36;62.54
7109;BME280;29079;41.930;25.558;2023-08-12T06:19:11;99996.06;;;22.42;62.92
7109;BME280;29079;41.930;25.558;2023-08-12T06:21:59;99996.56;;;22.59;62.41
7109;BME280;29079;41.930;25.558;2023-08-12T06:24:47;99997.66;;;22.71;61.81
7109;BME280;29079;41.930;25.558;2023-08-12T06:27:36;99988.66;;;22.64;61.67
7109;BME280;29079;41.930;25.558;2023-08-12T06:30:24;99911.22;;;22.12;61.05
7109;BME280;29079;41.930;25.558;2023-08-12T06:33:11;99986.53;;;22.66;61.21
7109;BME280;29079;41.930;25.558;2023-08-12T06:35:59;99924.81;;;22.12;60.94
7109;BME280;29079;41.930;25.558;2023-08-12T06:38:47;99985.31;;;22.75;61.30
7109;BME280;29079;41.930;25.558;2023-08-12T06:41:35;99921.59;;;22.36;60.66
7109;BME280;29079;41.930;25.558;2023-08-12T06:44:24;99988.53;;;22.99;59.92
7109;BME280;29079;41.930;25.558;2023-08-12T06:47:12;99980.34;;;22.99;59.25
7109;BME280;29079;41.930;25.558;2023-08-12T06:49:59;99995.69;;;23.14;59.23
7109;BME280;29079;41.930;25.558;2023-08-12T06:52:48;99983.28;;;23.04;58.91
7109;BME280;29079;41.930;25.558;2023-08-12T06:55:36;99983.31;;;23.18;59.15
7109;BME280;29079;41.930;25.558;2023-08-12T06:58:24;99983.13;;;23.26;58.40
7109;BME280;29079;41.930;25.558;2023-08-12T07:01:13;99982.91;;;23.41;58.05
7109;BME280;29079;41.930;25.558;2023-08-12T07:04:01;99987.53;;;23.40;57.60
7109;BME280;29079;41.930;25.558;2023-08-12T07:06:49;99981.88;;;23.49;57.10
7109;BME280;29079;41.930;25.558;2023-08-12T07:09:37;99979.56;;;23.52;57.36
7109;BME280;29079;41.930;25.558;2023-08-12T07:12:25;99979.94;;;23.76;56.62
7109;BME280;29079;41.930;25.558;2023-08-12T07:15:13;99971.59;;;23.77;55.46
7109;BME280;29079;41.930;25.558;2023-08-12T07:18:02;99971.38;;;23.79;55.21
7109;BME280;29079;41.930;25.558;2023-08-12T07:20:50;99964.88;;;23.93;55.08
7109;BME280;29079;41.930;25.558;2023-08-12T07:23:38;99969.25;;;24.01;54.87
7109;BME280;29079;41.930;25.558;2023-08-12T07:26:35;99965.88;;;24.06;53.68
7109;BME280;29079;41.930;25.558;2023-08-12T07:29:23;99968.81;;;24.11;52.79
7109;BME280;29079;41.930;25.558;2023-08-12T07:32:10;99971.72;;;24.16;52.80
7109;BME280;29079;41.930;25.558;2023-08-12T07:35:00;99972.25;;;24.38;51.91
7109;BME280;29079;41.930;25.558;2023-08-12T07:37:48;99967.88;;;24.37;52.15
7109;BME280;29079;41.930;25.558;2023-08-12T07:40:36;99976.50;;;24.34;52.65
7109;BME280;29079;41.930;25.558;2023-08-12T07:43:27;99970.53;;;24.50;51.55
7109;BME280;29079;41.930;25.558;2023-08-12T07:46:15;99964.22;;;24.63;51.48
7109;BME280;29079;41.930;25.558;2023-08-12T07:49:03;99960.03;;;24.61;51.25
7109;BME280;29079;41.930;25.558;2023-08-12T07:51:52;99944.47;;;24.61;51.02
7109;BME280;29079;41.930;25.558;2023-08-12T07:54:40;99968.31;;;24.79;50.57
7109;BME280;29079;41.930;25.558;2023-08-12T07:57:28;99960.44;;;24.51;49.99
7109;BME280;29079;41.930;25.558;2023-08-12T08:00:16;99956.78;;;24.77;49.99
7109;BME280;29079;41.930;25.558;2023-08-12T08:03:04;99948.59;;;24.77;49.62
7109;BME280;29079;41.930;25.558;2023-08-12T08:05:52;99959.50;;;24.77;50.24
7109;BME280;29079;41.930;25.558;2023-08-12T08:08:41;99954.00;;;24.84;50.07
7109;BME280;29079;41.930;25.558;2023-08-12T08:11:30;99952.66;;;25.00;49.93
7109;BME280;29079;41.930;25.558;2023-08-12T08:14:18;99953.91;;;24.97;49.38
7109;BME280;29079;41.930;25.558;2023-08-12T08:17:06;99937.78;;;24.89;50.64
7109;BME280;29079;41.930;25.558;2023-08-12T08:19:54;99951.41;;;24.96;50.16
7109;BME280;29079;41.930;25.558;2023-08-12T08:22:42;99954.13;;;24.96;49.93
7109;BME280;29079;41.930;25.558;2023-08-12T08:25:31;99944.88;;;25.29;49.33
7109;BME280;29079;41.930;25.558;2023-08-12T08:28:19;99935.97;;;25.40;48.79
7109;BME280;29079;41.930;25.558;2023-08-12T08:31:07;99940.91;;;25.50;48.88
7109;BME280;29079;41.930;25.558;2023-08-12T08:33:55;99941.03;;;25.36;48.64
7109;BME280;29079;41.930;25.558;2023-08-12T08:36:43;99934.06;;;25.41;48.97
7109;BME280;29079;41.930;25.558;2023-08-12T08:39:31;99938.28;;;25.62;47.80
7109;BME280;29079;41.930;25.558;2023-08-12T08:42:20;99933.03;;;25.60;46.84
7109;BME280;29079;41.930;25.558;2023-08-12T08:45:12;99926.91;;;25.65;47.63
7109;BME280;29079;41.930;25.558;2023-08-12T08:48:01;99931.59;;;25.76;46.50
7109;BME280;29079;41.930;25.558;2023-08-12T08:50:50;99916.66;;;25.79;45.83
7109;BME280;29079;41.930;25.558;2023-08-12T08:53:39;99926.38;;;25.93;45.32
7109;BME280;29079;41.930;25.558;2023-08-12T08:56:28;99931.50;;;26.08;45.41
7109;BME280;29079;41.930;25.558;2023-08-12T08:59:17;99930.91;;;26.06;45.06
7109;BME280;29079;41.930;25.558;2023-08-12T09:02:10;99915.56;;;26.05;45.59
7109;BME280;29079;41.930;25.558;2023-08-12T09:05:01;99913.50;;;26.00;45.28
7109;BME280;29079;41.930;25.558;2023-08-12T09:07:49;99905.22;;;25.88;46.64
7109;BME280;29079;41.930;25.558;2023-08-12T09:10:39;99901.25;;;25.84;46.10
7109;BME280;29079;41.930;25.558;2023-08-12T09:13:27;99897.84;;;26.08;45.85
7109;BME280;29079;41.930;25.558;2023-08-12T09:16:17;99892.03;;;26.04;45.77
7109;BME280;29079;41.930;25.558;2023-08-12T09:19:05;99891.25;;;25.97;45.82
7109;BME280;29079;41.930;25.558;2023-08-12T09:21:53;99895.34;;;26.24;44.24
7109;BME280;29079;41.930;25.558;2023-08-12T09:24:42;99891.63;;;26.19;46.53
7109;BME280;29079;41.930;25.558;2023-08-12T09:27:30;99891.84;;;26.17;46.05
7109;BME280;29079;41.930;25.558;2023-08-12T09:30:20;99825.13;;;25.69;46.04
7109;BME280;29079;41.930;25.558;2023-08-12T09:33:10;99880.22;;;26.22;45.37
7109;BME280;29079;41.930;25.558;2023-08-12T09:35:57;99872.66;;;26.36;45.06
7109;BME280;29079;41.930;25.558;2023-08-12T09:38:46;99869.69;;;26.07;45.78
7109;BME280;29079;41.930;25.558;2023-08-12T09:41:34;99857.34;;;25.98;45.79
7109;BME280;29079;41.930;25.558;2023-08-12T09:44:22;99873.28;;;26.19;44.44
7109;BME280;29079;41.930;25.558;2023-08-12T09:47:10;99867.69;;;26.14;45.49
7109;BME280;29079;41.930;25.558;2023-08-12T09:50:01;99868.69;;;26.01;45.65
7109;BME280;29079;41.930;25.558;2023-08-12T09:52:49;99875.97;;;26.08;44.68
7109;BME280;29079;41.930;25.558;2023-08-12T09:55:39;99860.53;;;26.32;43.51
7109;BME280;29079;41.930;25.558;2023-08-12T09:58:29;99856.97;;;26.43;44.58
7109;BME280;29079;41.930;25.558;2023-08-12T10:01:18;99855.41;;;26.35;43.74
7109;BME280;29079;41.930;25.558;2023-08-12T10:04:10;99854.97;;;26.50;43.63
7109;BME280;29079;41.930;25.558;2023-08-12T10:07:00;99852.19;;;26.69;43.01
7109;BME280;29079;41.930;25.558;2023-08-12T10:09:50;99846.66;;;26.87;42.27
7109;BME280;29079;41.930;25.558;2023-08-12T10:12:38;99844.88;;;26.93;42.22
7109;BME280;29079;41.930;25.558;2023-08-12T10:15:26;99832.63;;;27.07;42.66
7109;BME280;29079;41.930;25.558;2023-08-12T10:18:15;99836.66;;;27.28;41.45
7109;BME280;29079;41.930;25.558;2023-08-12T10:21:03;99825.34;;;27.25;41.36
7109;BME280;29079;41.930;25.558;2023-08-12T10:23:53;99825.19;;;27.32;41.44
7109;BME280;29079;41.930;25.558;2023-08-12T10:26:42;99822.13;;;27.40;41.24
7109;BME280;29079;41.930;25.558;2023-08-12T10:29:30;99816.28;;;27.60;39.88
7109;BME280;29079;41.930;25.558;2023-08-12T10:32:18;99829.72;;;27.61;41.51
7109;BME280;29079;41.930;25.558;2023-08-12T10:35:06;99825.44;;;27.66;40.26
7109;BME280;29079;41.930;25.558;2023-08-12T10:37:55;99800.91;;;27.59;39.86
7109;BME280;29079;41.930;25.558;2023-08-12T10:40:44;99816.16;;;27.43;42.35
7109;BME280;29079;41.930;25.558;2023-08-12T10:43:48;99682.94;;;26.66;39.30
7109;BME280;29079;41.930;25.558;2023-08-12T10:46:36;99815.91;;;27.56;41.10
7109;BME280;29079;41.930;25.558;2023-08-12T10:49:26;99807.06;;;27.66;40.58
7109;BME280;29079;41.930;25.558;2023-08-12T10:52:26;99789.25;;;27.16;41.46
7109;BME280;29079;41.930;25.558;2023-08-12T10:55:19;99814.88;;;27.22;43.21
7109;BME280;29079;41.930;25.558;2023-08-12T10:58:09;99809.16;;;27.12;43.23
7109;BME280;29079;41.930;25.558;2023-08-12T11:00:58;99793.56;;;27.00;40.77
7109;BME280;29079;41.930;25.558;2023-08-12T11:03:46;99791.63;;;27.13;44.36
7109;BME280;29079;41.930;25.558;2023-08-12T11:06:43;99786.84;;;27.55;42.50
7109;BME280;29079;41.930;25.558;2023-08-12T11:09:30;99794.91;;;27.74;41.12
7109;BME280;29079;41.930;25.558;2023-08-12T11:12:18;99789.72;;;27.49;40.20
7109;BME280;29079;41.930;25.558;2023-08-12T11:15:16;99782.97;;;27.39;41.91
7109;BME280;29079;41.930;25.558;2023-08-12T11:18:05;99784.38;;;27.42;40.75
7109;BME280;29079;41.930;25.558;2023-08-12T11:20:54;99791.50;;;27.43;39.86
7109;BME280;29079;41.930;25.558;2023-08-12T11:23:43;99783.88;;;27.33;42.07
7109;BME280;29079;41.930;25.558;2023-08-12T11:26:32;99787.69;;;27.32;42.41
7109;BME280;29079;41.930;25.558;2023-08-12T11:29:19;99773.53;;;27.47;41.90
7109;BME280;29079;41.930;25.558;2023-08-12T11:32:09;99773.16;;;27.55;41.03
7109;BME280;29079;41.930;25.558;2023-08-12T11:34:57;99776.16;;;27.42;43.05
7109;BME280;29079;41.930;25.558;2023-08-12T11:37:47;99778.88;;;27.30;41.07
7109;BME280;29079;41.930;25.558;2023-08-12T11:40:35;99776.63;;;27.39;41.99
7109;BME280;29079;41.930;25.558;2023-08-12T11:43:22;99779.97;;;27.29;41.71
7109;BME280;29079;41.930;25.558;2023-08-12T11:46:10;99769.13;;;27.34;41.09
7109;BME280;29079;41.930;25.558;2023-08-12T11:48:59;99757.28;;;27.57;40.08
7109;BME280;29079;41.930;25.558;2023-08-12T11:51:47;99756.94;;;27.54;43.46
7109;BME280;29079;41.930;25.558;2023-08-12T11:54:36;99760.47;;;27.66;40.47
7109;BME280;29079;41.930;25.558;2023-08-12T11:57:24;99757.16;;;27.64;39.54
7109;BME280;29079;41.930;25.558;2023-08-12T12:00:14;99765.00;;;27.60;39.39
7109;BME280;29079;41.930;25.558;2023-08-12T12:03:03;99766.13;;;27.59;40.41
7109;BME280;29079;41.930;25.558;2023-08-12T12:05:55;99769.09;;;27.58;41.16
7109;BME280;29079;41.930;25.558;2023-08-12T12:08:44;99761.97;;;27.45;40.53
7109;BME280;29079;41.930;25.558;2023-08-12T12:11:32;99745.16;;;27.41;44.36
7109;BME280;29079;41.930;25.558;2023-08-12T12:14:21;99748.56;;;27.60;43.97
7109;BME280;29079;41.930;25.558;2023-08-12T12:17:09;99742.72;;;27.69;39.87
7109;BME280;29079;41.930;25.558;2023-08-12T12:20:00;99750.06;;;27.80;40.84
7109;BME280;29079;41.930;25.558;2023-08-12T12:22:49;99745.94;;;27.94;41.25
7109;BME280;29079;41.930;25.558;2023-08-12T12:25:37;99744.00;;;28.07;40.39
7109;BME280;29079;41.930;25.558;2023-08-12T12:28:25;99739.63;;;27.94;40.76
7109;BME280;29079;41.930;25.558;2023-08-12T12:31:13;99738.09;;;27.86;40.59
7109;BME280;29079;41.930;25.558;2023-08-12T12:34:01;99739.34;;;27.78;42.43
7109;BME280;29079;41.930;25.558;2023-08-12T12:36:50;99738.97;;;27.75;41.24
7109;BME280;29079;41.930;25.558;2023-08-12T12:39:39;99731.75;;;27.69;41.53
7109;BME280;29079;41.930;25.558;2023-08-12T12:42:27;99730.75;;;27.75;41.33
7109;BME280;29079;41.930;25.558;2023-08-12T12:45:15;99708.44;;;27.54;40.60
7109;BME280;29079;41.930;25.558;2023-08-12T12:48:04;99727.94;;;27.70;42.72
7109;BME280;29079;41.930;25.558;2023-08-12T12:50:52;99724.00;;;27.66;42.33
7109;BME280;29079;41.930;25.558;2023-08-12T12:53:40;99717.34;;;27.61;42.14
7109;BME280;29079;41.930;25.558;2023-08-12T12:56:30;99722.38;;;27.53;42.39
7109;BME280;29079;41.930;25.558;2023-08-12T12:59:17;99715.78;;;27.66;41.24
7109;BME280;29079;41.930;25.558;2023-08-12T13:02:05;99718.28;;;27.67;40.59
7109;BME280;29079;41.930;25.558;2023-08-12T13:04:54;99709.25;;;27.55;42.60
7109;BME280;29079;41.930;25.558;2023-08-12T13:07:42;99712.69;;;27.62;42.79
7109;BME280;29079;41.930;25.558;2023-08-12T13:10:30;99706.25;;;27.68;42.74
7109;BME280;29079;41.930;25.558;2023-08-12T13:13:19;99703.47;;;27.80;41.86
7109;BME280;29079;41.930;25.558;2023-08-12T13:16:07;99710.75;;;28.03;40.53
7109;BME280;29079;41.930;25.558;2023-08-12T13:18:55;99706.38;;;27.90;40.88
7109;BME280;29079;41.930;25.558;2023-08-12T13:21:44;99712.13;;;27.89;44.26
7109;BME280;29079;41.930;25.558;2023-08-12T13:24:32;99698.97;;;27.74;43.08
7109;BME280;29079;41.930;25.558;2023-08-12T13:27:20;99699.97;;;27.85;40.95
7109;BME280;29079;41.930;25.558;2023-08-12T13:30:11;99696.59;;;27.94;40.14
7109;BME280;29079;41.930;25.558;2023-08-12T13:32:59;99676.38;;;27.84;40.38
7109;BME280;29079;41.930;25.558;2023-08-12T13:35:47;99697.56;;;27.88;39.70
7109;BME280;29079;41.930;25.558;2023-08-12T13:38:35;99689.06;;;27.90;40.70
7109;BME280;29079;41.930;25.558;2023-08-12T13:41:23;99696.69;;;27.71;40.16
7109;BME280;29079;41.930;25.558;2023-08-12T13:44:10;99690.75;;;27.74;42.07
7109;BME280;29079;41.930;25.558;2023-08-12T13:46:59;99693.63;;;27.67;40.40
7109;BME280;29079;41.930;25.558;2023-08-12T13:49:47;99692.69;;;27.61;41.19
7109;BME280;29079;41.930;25.558;2023-08-12T13:52:36;99678.66;;;27.75;42.17
7109;BME280;29079;41.930;25.558;2023-08-12T13:55:24;99685.81;;;27.76;41.58
7109;BME280;29079;41.930;25.558;2023-08-12T13:58:12;99683.22;;;27.69;41.51
7109;BME280;29079;41.930;25.558;2023-08-12T14:00:59;99642.84;;;27.65;40.83
7109;BME280;29079;41.930;25.558;2023-08-12T14:03:49;99679.53;;;27.92;41.26
7109;BME280;29079;41.930;25.558;2023-08-12T14:06:37;99681.44;;;27.92;40.39
7109;BME280;29079;41.930;25.558;2023-08-12T14:09:26;99674.66;;;27.94;41.01
7109;BME280;29079;41.930;25.558;2023-08-12T14:12:14;99677.00;;;28.03;40.29
7109;BME280;29079;41.930;25.558;2023-08-12T14:15:02;99678.34;;;28.00;40.58
7109;BME280;29079;41.930;25.558;2023-08-12T14:17:50;99665.50;;;27.89;41.31
7109;BME280;29079;41.930;25.558;2023-08-12T14:20:39;99681.97;;;28.06;41.76
7109;BME280;29079;41.930;25.558;2023-08-12T14:23:27;99687.66;;;27.99;41.89
7109;BME280;29079;41.930;25.558;2023-08-12T14:26:15;99686.84;;;27.87;41.39
7109;BME280;29079;41.930;25.558;2023-08-12T14:29:03;99677.09;;;27.79;41.58
7109;BME280;29079;41.930;25.558;2023-08-12T14:31:52;99680.78;;;27.85;40.63
7109;BME280;29079;41.930;25.558;2023-08-12T14:34:40;99674.28;;;27.91;42.09
7109;BME280;29079;41.930;25.558;2023-08-12T14:37:31;99670.31;;;27.82;41.37
7109;BME280;29079;41.930;25.558;2023-08-12T14:40:19;99675.97;;;27.92;41.15
7109;BME280;29079;41.930;25.558;2023-08-12T14:43:07;99671.31;;;27.92;40.77
7109;BME280;29079;41.930;25.558;2023-08-12T14:45:55;99610.97;;;27.58;42.03
7109;BME280;29079;41.930;25.558;2023-08-12T14:48:42;99673.97;;;27.87;40.56
7109;BME280;29079;41.930;25.558;2023-08-12T14:51:30;99675.72;;;27.93;40.78
7109;BME280;29079;41.930;25.558;2023-08-12T14:54:19;99676.72;;;27.87;41.58